createdAt,value
2023-04-24T00:00:42.353Z,2.10
2023-04-24T00:03:10.839Z,2.80
2023-04-24T00:05:42.266Z,3.00
2023-04-24T00:08:11.099Z,2.10
2023-04-24T00:10:39.488Z,3.70
2023-04-24T00:13:07.861Z,5.00
2023-04-24T00:15:36.308Z,2.67
2023-04-24T00:18:05.012Z,1.93
2023-04-24T00:20:34.527Z,2.30
2023-04-24T00:23:04.317Z,3.23
2023-04-24T00:25:32.946Z,1.93
2023-04-24T00:28:01.288Z,2.33
2023-04-24T00:30:29.731Z,3.50
2023-04-24T00:32:58.216Z,1.90
2023-04-24T00:35:26.989Z,2.40
2023-04-24T00:37:55.845Z,1.77
2023-04-24T00:40:25.566Z,2.77
2023-04-24T00:42:53.969Z,2.40
2023-04-24T00:45:22.594Z,1.73
2023-04-24T00:47:51.422Z,2.67
2023-04-24T00:50:22.299Z,1.20
2023-04-24T00:52:50.817Z,2.27
2023-04-24T00:55:19.710Z,3.47
2023-04-24T00:57:49.815Z,1.53
2023-04-24T01:00:18.278Z,2.40
2023-04-24T01:02:47.090Z,1.80
2023-04-24T01:05:16.292Z,1.90
2023-04-24T01:07:46.878Z,1.20
2023-04-24T01:10:16.121Z,1.40
2023-04-24T01:12:44.481Z,1.47
2023-04-24T01:15:16.502Z,2.77
2023-04-24T01:17:44.957Z,1.37
2023-04-24T01:20:13.692Z,2.27
2023-04-24T01:22:44.778Z,1.67
2023-04-24T01:25:13.507Z,1.20
2023-04-24T01:27:42.149Z,2.80
2023-04-24T01:30:11.343Z,1.87
2023-04-24T01:32:39.884Z,1.87
2023-04-24T01:35:09.129Z,1.30
2023-04-24T01:37:38.345Z,3.23
2023-04-24T01:40:09.965Z,1.80
2023-04-24T01:42:38.436Z,1.90
2023-04-24T01:45:07.958Z,3.43
2023-04-24T01:47:36.776Z,1.97
2023-04-24T01:50:05.385Z,1.90
2023-04-24T01:52:34.531Z,2.43
2023-04-24T01:55:03.505Z,3.23
2023-04-24T01:57:33.879Z,2.90
2023-04-24T02:00:02.430Z,1.80
2023-04-24T02:02:35.883Z,4.67
2023-04-24T02:05:06.205Z,1.97
2023-04-24T02:07:36.291Z,1.60
2023-04-24T02:10:05.099Z,4.93
2023-04-24T02:12:35.570Z,2.50
2023-04-24T02:15:04.065Z,2.87
2023-04-24T02:17:32.927Z,4.17
2023-04-24T02:20:01.453Z,1.80
2023-04-24T02:22:30.052Z,2.47
2023-04-24T02:24:58.474Z,2.60
2023-04-24T02:27:26.887Z,1.60
2023-04-24T02:29:56.682Z,1.90
2023-04-24T02:32:25.173Z,3.57
2023-04-24T02:34:53.744Z,2.00
2023-04-24T02:37:22.147Z,2.87
2023-04-24T02:39:50.624Z,1.20
2023-04-24T02:42:18.996Z,1.57
2023-04-24T02:44:47.387Z,2.20
2023-04-24T02:47:17.173Z,2.97
2023-04-24T02:49:45.912Z,2.50
2023-04-24T02:52:15.698Z,2.27
2023-04-24T02:54:44.160Z,1.77
2023-04-24T02:57:12.791Z,2.17
2023-04-24T02:59:44.225Z,4.17
2023-04-24T03:02:12.943Z,3.47
2023-04-24T03:04:44.024Z,1.53
2023-04-24T03:07:13.179Z,3.40
2023-04-24T03:09:42.060Z,1.47
2023-04-24T03:12:11.013Z,2.27
2023-04-24T03:14:39.402Z,3.17
2023-04-24T03:17:07.878Z,2.33
2023-04-24T03:19:36.301Z,2.77
2023-04-24T03:22:12.350Z,2.53
2023-04-24T03:24:42.258Z,1.20
2023-04-24T03:27:10.972Z,2.97
2023-04-24T03:30:05.741Z,2.07
2023-04-24T03:32:43.790Z,2.77
2023-04-24T03:35:15.223Z,2.43
2023-04-24T03:37:45.696Z,1.43
2023-04-24T03:40:34.671Z,2.80
2023-04-24T03:43:04.756Z,2.80
2023-04-24T03:45:33.249Z,4.20
2023-04-24T03:48:01.796Z,2.80
2023-04-24T03:50:31.239Z,2.60
2023-04-24T03:53:01.419Z,2.17
2023-04-24T03:55:38.833Z,2.40
2023-04-24T03:58:07.644Z,3.70
2023-04-24T04:00:38.582Z,2.77
2023-04-24T04:03:36.169Z,2.87
2023-04-24T04:06:04.851Z,2.13
2023-04-24T04:08:34.998Z,2.17
2023-04-24T04:11:05.341Z,2.83
2023-04-24T04:13:34.167Z,4.33
2023-04-24T04:16:03.212Z,6.23
2023-04-24T04:18:31.893Z,4.97
2023-04-24T04:21:02.377Z,1.60
2023-04-24T04:23:31.107Z,2.27
2023-04-24T04:26:10.455Z,2.57
2023-04-24T04:28:51.694Z,3.97
2023-04-24T04:31:20.717Z,3.07
2023-04-24T04:33:49.362Z,2.33
2023-04-24T04:36:19.081Z,2.43
2023-04-24T04:38:52.302Z,2.80
2023-04-24T04:41:42.791Z,2.03
2023-04-24T04:44:13.700Z,2.83
2023-04-24T04:46:42.829Z,3.40
2023-04-24T04:49:25.738Z,2.30
2023-04-24T04:51:54.401Z,2.17
2023-04-24T04:54:24.243Z,2.33
2023-04-24T04:56:54.174Z,3.47
2023-04-24T04:59:23.015Z,3.13
2023-04-24T05:01:56.694Z,1.57
2023-04-24T05:04:25.822Z,1.50
2023-04-24T05:06:54.415Z,3.67
2023-04-24T05:09:24.650Z,1.40
2023-04-24T05:11:58.645Z,3.77
2023-04-24T05:14:28.721Z,2.60
2023-04-24T05:16:58.031Z,4.17
2023-04-24T05:19:28.526Z,3.50
2023-04-24T05:21:56.982Z,4.53
2023-04-24T05:24:25.560Z,2.00
2023-04-24T05:27:22.110Z,2.30
2023-04-24T05:29:51.606Z,1.77
2023-04-24T05:32:20.441Z,2.07
2023-04-24T05:34:49.300Z,3.17
2023-04-24T05:37:17.817Z,2.03
2023-04-24T05:39:46.259Z,1.57
2023-04-24T05:42:15.339Z,3.13
2023-04-24T05:44:45.275Z,2.00
2023-04-24T05:47:13.709Z,2.23
2023-04-24T05:49:42.464Z,2.13
2023-04-24T05:52:11.196Z,1.93
2023-04-24T05:54:41.514Z,3.03
2023-04-24T05:57:11.146Z,2.37
2023-04-24T05:59:56.400Z,1.60
2023-04-24T06:02:25.091Z,3.47
2023-04-24T06:04:54.531Z,2.23
2023-04-24T06:07:23.264Z,1.63
2023-04-24T06:09:51.698Z,1.40
2023-04-24T06:12:20.609Z,1.70
2023-04-24T06:14:58.774Z,0.80
2023-04-24T06:17:45.854Z,5.43
2023-04-24T06:20:17.225Z,2.10
2023-04-24T06:22:45.976Z,1.77
2023-04-24T06:25:14.400Z,1.70
2023-04-24T06:27:42.967Z,2.17
2023-04-24T06:30:13.371Z,1.80
2023-04-24T06:32:42.616Z,4.00
2023-04-24T06:35:12.542Z,2.00
2023-04-24T06:37:42.049Z,0.97
2023-04-24T06:40:10.860Z,1.30
2023-04-24T06:42:39.470Z,1.73
2023-04-24T06:45:10.899Z,2.27
2023-04-24T06:47:41.479Z,1.63
2023-04-24T06:50:10.705Z,1.00
2023-04-24T06:52:39.123Z,1.20
2023-04-24T06:55:08.186Z,2.27
2023-04-24T06:57:36.670Z,2.73
2023-04-24T07:00:06.403Z,1.20
2023-04-24T07:02:35.146Z,0.97
2023-04-24T07:05:05.168Z,2.60
2023-04-24T07:07:33.714Z,1.47
2023-04-24T07:10:02.567Z,3.43
2023-04-24T07:12:31.171Z,2.47
2023-04-24T07:14:59.656Z,2.50
2023-04-24T07:17:28.411Z,2.90
2023-04-24T07:20:01.563Z,1.60
2023-04-24T07:22:33.051Z,2.00
2023-04-24T07:25:01.449Z,1.03
2023-04-24T07:27:29.899Z,1.50
2023-04-24T07:29:58.800Z,1.10
2023-04-24T07:32:27.362Z,1.23
2023-04-24T07:34:56.296Z,2.37
2023-04-24T07:37:25.383Z,1.97
2023-04-24T07:39:55.209Z,4.53
2023-04-24T07:42:23.783Z,2.00
2023-04-24T07:44:52.595Z,1.30
2023-04-24T07:47:21.285Z,1.47
2023-04-24T07:49:49.842Z,2.97
2023-04-24T07:52:18.404Z,2.93
2023-04-24T07:54:46.975Z,2.33
2023-04-24T07:57:16.934Z,2.07
2023-04-24T07:59:45.956Z,0.90
2023-04-24T08:02:15.018Z,3.27
2023-04-24T08:04:43.580Z,1.00
2023-04-24T08:07:13.870Z,3.90
2023-04-24T08:09:43.073Z,2.53
2023-04-24T08:12:11.918Z,2.07
2023-04-24T08:14:41.911Z,4.43
2023-04-24T08:17:10.720Z,2.43
2023-04-24T08:19:39.396Z,3.07
2023-04-24T08:22:07.920Z,1.87
2023-04-24T08:24:37.634Z,1.93
2023-04-24T08:27:06.465Z,3.20
2023-04-24T08:29:35.199Z,1.10
2023-04-24T08:32:05.733Z,2.27
2023-04-24T08:34:34.198Z,1.43
2023-04-24T08:37:02.630Z,1.43
2023-04-24T08:39:31.462Z,3.13
2023-04-24T08:42:06.446Z,1.30
2023-04-24T08:44:35.587Z,2.33
2023-04-24T08:47:06.330Z,1.77
2023-04-24T08:49:35.162Z,2.60
2023-04-24T08:52:04.551Z,3.40
2023-04-24T08:54:33.909Z,2.50
2023-04-24T08:57:04.722Z,1.80
2023-04-24T08:59:34.383Z,3.70
2023-04-24T09:02:03.113Z,3.97
2023-04-24T09:04:33.405Z,2.43
2023-04-24T09:07:02.654Z,4.77
2023-04-24T09:09:33.611Z,2.03
2023-04-24T09:12:03.201Z,2.13
2023-04-24T09:14:32.972Z,3.17
2023-04-24T09:17:01.611Z,2.50
2023-04-24T09:19:30.403Z,2.87
2023-04-24T09:22:00.304Z,2.27
2023-04-24T09:24:28.696Z,2.67
2023-04-24T09:26:59.687Z,3.93
2023-04-24T09:29:28.347Z,4.20
2023-04-24T09:31:57.073Z,3.33
2023-04-24T09:34:26.566Z,3.67
2023-04-24T09:36:57.801Z,4.20
2023-04-24T09:39:27.744Z,2.90
2023-04-24T09:41:58.421Z,3.90
2023-04-24T09:44:27.926Z,4.80
2023-04-24T09:46:57.326Z,3.97
2023-04-24T09:49:26.742Z,3.00
2023-04-24T09:52:05.004Z,2.10
2023-04-24T09:54:35.058Z,3.38
2023-04-24T09:57:03.750Z,1.93
2023-04-24T09:59:33.053Z,1.47
2023-04-24T10:02:02.287Z,2.15
2023-04-24T10:04:31.575Z,2.13
2023-04-24T10:07:02.099Z,4.00
2023-04-24T10:09:32.236Z,2.17
2023-04-24T10:12:03.337Z,4.40
2023-04-24T10:14:32.517Z,2.20
2023-04-24T10:17:01.451Z,2.80
2023-04-24T10:19:30.095Z,2.00
2023-04-24T10:21:59.041Z,2.73
2023-04-24T10:24:27.906Z,2.23
2023-04-24T10:26:58.253Z,2.37
2023-04-24T10:29:28.630Z,2.00
2023-04-24T10:31:57.158Z,2.70
2023-04-24T10:34:27.121Z,3.07
2023-04-24T10:36:57.957Z,2.50
2023-04-24T10:39:28.232Z,2.17
2023-04-24T10:41:58.900Z,1.37
2023-04-24T10:44:38.564Z,2.20
2023-04-24T10:47:07.020Z,2.27
2023-04-24T10:49:36.519Z,5.60
2023-04-24T10:52:07.925Z,1.77
2023-04-24T10:54:44.990Z,2.73
2023-04-24T10:57:31.798Z,3.40
2023-04-24T11:00:22.123Z,1.60
2023-04-24T11:02:53.642Z,1.77
2023-04-24T11:05:23.045Z,2.07
2023-04-24T11:08:11.162Z,2.37
2023-04-24T11:10:41.510Z,2.40
2023-04-24T11:13:11.641Z,2.40
2023-04-24T11:15:44.610Z,2.67
2023-04-24T11:18:16.479Z,2.23
2023-04-24T11:20:45.730Z,2.63
2023-04-24T11:23:15.323Z,2.65
2023-04-24T11:25:44.813Z,2.35
2023-04-24T11:28:18.439Z,2.00
2023-04-24T11:30:49.813Z,2.27
2023-04-24T11:33:22.829Z,1.65
2023-04-24T11:35:52.438Z,2.75
2023-04-24T11:38:24.663Z,2.28
2023-04-24T11:40:54.149Z,1.90
2023-04-24T11:43:23.138Z,1.15
2023-04-24T11:45:53.233Z,2.30
2023-04-24T11:48:23.376Z,1.35
2023-04-24T11:50:52.618Z,2.33
2023-04-24T11:53:22.540Z,1.50
2023-04-24T11:55:51.092Z,1.67
2023-04-24T11:58:23.742Z,1.40
2023-04-24T12:01:00.469Z,1.60
2023-04-24T12:03:29.095Z,2.07
2023-04-24T12:06:08.915Z,1.73
2023-04-24T12:08:38.535Z,2.20
2023-04-24T12:11:08.848Z,5.00
2023-04-24T12:13:38.373Z,3.35
2023-04-24T12:16:09.176Z,2.17
2023-04-24T12:18:37.956Z,2.28
2023-04-24T12:21:23.313Z,1.55
2023-04-24T12:23:52.581Z,3.67
2023-04-24T12:26:22.188Z,1.95
2023-04-24T12:28:51.333Z,1.90
2023-04-24T12:31:23.628Z,2.30
2023-04-24T12:33:52.158Z,1.65
2023-04-24T12:36:20.609Z,4.22
2023-04-24T12:38:49.286Z,1.73
2023-04-24T12:41:19.381Z,2.42
2023-04-24T12:43:54.799Z,3.42
2023-04-24T12:46:24.973Z,1.85
2023-04-24T12:48:53.647Z,2.85
2023-04-24T12:51:22.306Z,1.80
2023-04-24T12:53:50.719Z,3.27
2023-04-24T12:56:19.189Z,3.57
2023-04-24T12:58:47.879Z,1.37
2023-04-24T13:01:16.510Z,3.70
2023-04-24T13:04:09.899Z,3.40
2023-04-24T13:06:40.271Z,3.27
2023-04-24T13:09:08.987Z,2.10
2023-04-24T13:11:38.569Z,2.37
2023-04-24T13:14:07.335Z,2.57
2023-04-24T13:16:36.083Z,2.53
2023-04-24T13:19:04.784Z,2.47
2023-04-24T13:21:33.525Z,3.30
2023-04-24T13:24:05.863Z,2.00
2023-04-24T13:26:34.387Z,1.40
2023-04-24T13:29:04.084Z,3.30
2023-04-24T13:31:32.573Z,3.03
2023-04-24T13:34:01.099Z,2.60
2023-04-24T13:36:29.820Z,2.40
2023-04-24T13:38:58.237Z,3.30
2023-04-24T13:41:28.467Z,1.87
2023-04-24T13:43:56.835Z,1.77
2023-04-24T13:46:25.307Z,1.30
2023-04-24T13:48:54.487Z,3.63
2023-04-24T13:51:22.950Z,2.10
2023-04-24T13:53:51.462Z,2.63
2023-04-24T13:56:19.901Z,1.60
2023-04-24T13:58:50.456Z,3.07
2023-04-24T14:01:18.988Z,3.23
2023-04-24T14:03:47.686Z,1.40
2023-04-24T14:06:16.445Z,2.55
2023-04-24T14:08:44.839Z,4.67
2023-04-24T14:11:13.465Z,1.80
2023-04-24T14:13:43.795Z,2.17
2023-04-24T14:16:15.278Z,2.80
2023-04-24T14:18:44.099Z,3.40
2023-04-24T14:21:12.584Z,2.63
2023-04-24T14:23:41.232Z,2.57
2023-04-24T14:26:10.649Z,2.70
2023-04-24T14:28:39.421Z,3.07
2023-04-24T14:31:08.407Z,1.20
2023-04-24T14:33:38.337Z,2.60
2023-04-24T14:36:07.198Z,1.67
2023-04-24T14:38:35.965Z,1.80
2023-04-24T14:41:13.712Z,1.73
2023-04-24T14:43:42.952Z,2.17
2023-04-24T14:46:11.625Z,5.37
2023-04-24T14:48:41.451Z,3.33
2023-04-24T14:51:09.868Z,1.37
2023-04-24T14:53:38.306Z,1.53
2023-04-24T14:56:07.299Z,1.37
2023-04-24T14:58:35.856Z,0.90
2023-04-24T15:01:04.521Z,1.00
2023-04-24T15:03:33.108Z,2.00
2023-04-24T15:06:03.124Z,1.30
2023-04-24T15:08:31.575Z,1.37
2023-04-24T15:11:02.390Z,0.70
2023-04-24T15:13:31.029Z,1.50
2023-04-24T15:15:59.534Z,1.27
2023-04-24T15:18:29.826Z,2.20
2023-04-24T15:20:58.240Z,1.47
2023-04-24T15:23:27.997Z,0.93
2023-04-24T15:25:57.134Z,1.43
2023-04-24T15:28:25.560Z,1.27
2023-04-24T15:30:55.365Z,1.97
2023-04-24T15:33:24.060Z,1.70
2023-04-24T15:35:52.461Z,2.10
2023-04-24T15:38:21.011Z,0.93
2023-04-24T15:40:50.818Z,2.90
2023-04-24T15:43:19.460Z,2.20
2023-04-24T15:45:48.027Z,2.27
2023-04-24T15:48:16.459Z,1.27
2023-04-24T15:50:44.957Z,1.77
2023-04-24T15:53:13.678Z,2.17
2023-04-24T15:55:42.442Z,1.10
2023-04-24T15:58:12.217Z,3.07
2023-04-24T16:00:41.199Z,1.30
2023-04-24T16:03:10.304Z,1.03
2023-04-24T16:05:39.150Z,1.37
2023-04-24T16:08:07.899Z,2.40
2023-04-24T16:10:36.423Z,2.37
2023-04-24T16:13:05.275Z,1.67
2023-04-24T16:15:36.438Z,2.67
2023-04-24T16:18:04.963Z,1.80
2023-04-24T16:20:33.494Z,1.60
2023-04-24T16:23:01.870Z,2.10
2023-04-24T16:25:30.552Z,1.77
2023-04-24T16:27:59.003Z,2.20
2023-04-24T16:30:28.070Z,1.07
2023-04-24T16:32:57.964Z,2.83
2023-04-24T16:35:26.447Z,1.43
2023-04-24T16:37:54.910Z,3.67
2023-04-24T16:40:23.631Z,2.33
2023-04-24T16:42:52.818Z,2.33
2023-04-24T16:45:21.343Z,2.20
2023-04-24T16:47:49.852Z,1.33
2023-04-24T16:50:19.703Z,1.47
2023-04-24T16:52:48.173Z,1.90
2023-04-24T16:55:16.658Z,1.67
2023-04-24T16:57:45.066Z,1.70
2023-04-24T17:00:14.107Z,2.33
2023-04-24T17:02:42.589Z,1.30
2023-04-24T17:05:11.225Z,2.00
2023-04-24T17:07:41.061Z,2.20
2023-04-24T17:10:10.136Z,4.83
2023-04-24T17:12:38.592Z,1.73
2023-04-24T17:15:07.641Z,2.20
2023-04-24T17:17:36.842Z,1.30
2023-04-24T17:20:18.790Z,3.80
2023-04-24T17:22:52.338Z,3.90
2023-04-24T17:25:21.250Z,4.10
2023-04-24T17:27:49.655Z,2.30
2023-04-24T17:30:18.572Z,2.10
2023-04-24T17:32:47.465Z,2.67
2023-04-24T17:35:15.997Z,1.80
2023-04-24T17:37:44.596Z,1.50
2023-04-24T17:40:15.742Z,2.47
2023-04-24T17:42:44.052Z,2.37
2023-04-24T17:45:13.375Z,2.50
2023-04-24T17:47:42.545Z,2.60
2023-04-24T17:50:11.258Z,2.07
2023-04-24T17:52:39.656Z,4.00
2023-04-24T17:55:08.485Z,1.83
2023-04-24T17:57:38.634Z,1.67
2023-04-24T18:00:08.976Z,2.17
2023-04-24T18:02:39.130Z,1.90
2023-04-24T18:05:07.775Z,2.40
2023-04-24T18:07:36.185Z,4.43
2023-04-24T18:10:05.021Z,1.93
2023-04-24T18:12:33.446Z,2.60
2023-04-24T18:15:16.614Z,3.20
2023-04-24T18:17:45.106Z,2.87
2023-04-24T18:20:14.304Z,5.37
2023-04-24T18:22:43.356Z,3.97
2023-04-24T18:25:12.723Z,2.10
2023-04-24T18:27:41.673Z,5.00
2023-04-24T18:30:14.923Z,5.00
2023-04-24T18:32:44.073Z,2.23
2023-04-24T18:35:12.479Z,4.80
2023-04-24T18:37:41.617Z,3.97
2023-04-24T18:40:11.341Z,2.30
2023-04-24T18:42:39.770Z,3.90
2023-04-24T18:45:08.873Z,2.80
2023-04-24T18:47:39.306Z,3.13
2023-04-24T18:50:08.685Z,3.33
2023-04-24T18:52:38.220Z,3.00
2023-04-24T18:55:07.458Z,3.40
2023-04-24T18:57:36.160Z,2.87
2023-04-24T19:00:05.134Z,4.03
2023-04-24T19:02:34.601Z,2.97
2023-04-24T19:05:04.624Z,3.77
2023-04-24T19:07:33.044Z,2.97
2023-04-24T19:10:01.470Z,6.57
2023-04-24T19:12:30.225Z,4.23
2023-04-24T19:14:58.865Z,4.03
2023-04-24T19:17:27.416Z,3.53
2023-04-24T19:19:55.929Z,4.77
2023-04-24T19:22:25.758Z,5.10
2023-04-24T19:24:54.499Z,4.17
2023-04-24T19:27:22.913Z,3.93
2023-04-24T19:29:52.098Z,3.77
2023-04-24T19:32:21.179Z,3.77
2023-04-24T19:34:50.321Z,4.80
2023-04-24T19:37:18.721Z,5.07
2023-04-24T19:39:48.509Z,5.00
2023-04-24T19:42:19.435Z,4.83
2023-04-24T19:44:51.673Z,5.73
2023-04-24T19:47:20.065Z,6.17
2023-04-24T19:49:48.535Z,4.63
2023-04-24T19:52:16.967Z,5.53
2023-04-24T19:54:45.459Z,4.17
2023-04-24T19:57:15.390Z,5.33
2023-04-24T19:59:43.854Z,4.87
2023-04-24T20:02:13.940Z,4.20
2023-04-24T20:04:42.841Z,7.93
2023-04-24T20:07:11.986Z,3.77
2023-04-24T20:09:40.538Z,9.90
2023-04-24T20:12:08.908Z,6.23
2023-04-24T20:14:38.655Z,6.27
2023-04-24T20:17:07.681Z,4.57
2023-04-24T20:19:36.375Z,6.50
2023-04-24T20:22:04.891Z,4.30
2023-04-24T20:24:33.388Z,4.10
2023-04-24T20:27:02.446Z,7.80
2023-04-24T20:29:30.975Z,4.67
2023-04-24T20:32:00.820Z,7.27
2023-04-24T20:34:29.261Z,3.33
2023-04-24T20:36:59.100Z,4.83
2023-04-24T20:39:27.640Z,8.20
2023-04-24T20:41:56.176Z,6.77
2023-04-24T20:44:24.620Z,5.63
2023-04-24T20:46:53.405Z,5.70
2023-04-24T20:49:23.197Z,7.40
2023-04-24T20:51:51.601Z,7.53
2023-04-24T20:54:19.965Z,4.53
2023-04-24T20:56:48.816Z,7.93
2023-04-24T20:59:17.294Z,6.50
2023-04-24T21:01:45.753Z,4.37
2023-04-24T21:04:14.230Z,4.73
2023-04-24T21:06:44.287Z,3.80
2023-04-24T21:09:13.056Z,5.93
2023-04-24T21:11:41.465Z,4.60
2023-04-24T21:14:10.552Z,5.90
2023-04-24T21:16:39.117Z,4.70
2023-04-24T21:19:07.715Z,3.93
2023-04-24T21:21:36.416Z,5.17
2023-04-24T21:24:06.425Z,6.23
2023-04-24T21:26:34.886Z,5.97
2023-04-24T21:29:03.408Z,5.60
2023-04-24T21:31:31.888Z,4.47
2023-04-24T21:34:00.923Z,5.80
2023-04-24T21:36:32.227Z,5.90
2023-04-24T21:39:01.176Z,8.33
2023-04-24T21:41:31.040Z,7.00
2023-04-24T21:43:59.746Z,7.20
2023-04-24T21:46:28.290Z,6.80
2023-04-24T21:48:56.744Z,3.97
2023-04-24T21:51:25.186Z,4.43
2023-04-24T21:53:53.640Z,7.03
2023-04-24T21:56:22.069Z,4.20
2023-04-24T21:58:52.168Z,5.50
2023-04-24T22:01:20.770Z,4.47
2023-04-24T22:03:53.053Z,6.30
2023-04-24T22:06:21.851Z,4.30
2023-04-24T22:08:50.429Z,3.77
2023-04-24T22:11:26.699Z,3.40
2023-04-24T22:13:57.225Z,4.27
2023-04-24T22:16:26.869Z,5.53
2023-04-24T22:18:56.802Z,3.63
2023-04-24T22:21:25.270Z,3.87
2023-04-24T22:23:53.703Z,3.80
2023-04-24T22:26:22.117Z,3.43
2023-04-24T22:28:50.557Z,3.47
2023-04-24T22:31:20.372Z,5.20
2023-04-24T22:33:49.103Z,2.70
2023-04-24T22:36:17.752Z,4.80
2023-04-24T22:38:46.214Z,5.50
2023-04-24T22:41:14.610Z,4.53
2023-04-24T22:43:43.018Z,3.87
2023-04-24T22:46:11.474Z,3.53
2023-04-24T22:48:41.364Z,5.87
2023-04-24T22:51:10.763Z,5.63
2023-04-24T22:53:39.200Z,4.97
2023-04-24T22:56:08.022Z,4.43
2023-04-24T22:58:36.480Z,6.53
2023-04-24T23:01:05.141Z,5.27
2023-04-24T23:03:35.860Z,5.13
2023-04-24T23:06:06.313Z,4.33
2023-04-24T23:08:34.774Z,4.77
2023-04-24T23:11:03.432Z,5.00
2023-04-24T23:13:31.906Z,5.47
2023-04-24T23:16:00.375Z,5.30
2023-04-24T23:18:30.126Z,3.97
2023-04-24T23:20:58.798Z,5.47
2023-04-24T23:23:29.224Z,3.80
2023-04-24T23:25:57.941Z,8.70
2023-04-24T23:28:27.079Z,7.03
2023-04-24T23:30:55.483Z,6.63
2023-04-24T23:33:23.879Z,4.40
2023-04-24T23:35:52.708Z,7.23
2023-04-24T23:38:21.134Z,4.93
2023-04-24T23:40:51.979Z,6.20
2023-04-24T23:43:20.404Z,6.53
2023-04-24T23:45:48.953Z,7.90
2023-04-24T23:48:17.557Z,7.33
2023-04-24T23:50:45.964Z,5.57
2023-04-24T23:53:14.365Z,5.50
2023-04-24T23:55:42.952Z,8.73
2023-04-24T23:58:13.015Z,8.97
